createdAt,value
2023-03-04T00:02:14.479Z,19.08
2023-03-04T00:05:16.609Z,19.83
2023-03-04T00:08:18.691Z,19.23
2023-03-04T00:11:21.012Z,17.23
2023-03-04T00:14:23.117Z,20.08
2023-03-04T00:17:25.820Z,19.00
2023-03-04T00:20:30.251Z,20.35
2023-03-04T00:23:32.563Z,19.60
2023-03-04T00:26:34.568Z,18.42
2023-03-04T00:29:36.717Z,19.45
2023-03-04T00:32:38.957Z,18.17
2023-03-04T00:35:42.475Z,18.70
2023-03-04T00:38:44.486Z,17.45
2023-03-04T00:41:46.530Z,18.90
2023-03-04T00:44:54.107Z,18.67
2023-03-04T00:47:58.691Z,18.92
2023-03-04T00:51:00.726Z,18.45
2023-03-04T00:54:02.863Z,17.42
2023-03-04T00:57:05.032Z,16.92
2023-03-04T01:00:07.724Z,20.08
2023-03-04T01:03:10.351Z,17.08
2023-03-04T01:06:13.283Z,17.52
2023-03-04T01:09:15.516Z,17.92
2023-03-04T01:12:17.531Z,18.98
2023-03-04T01:15:19.672Z,17.58
2023-03-04T01:18:22.900Z,19.52
2023-03-04T01:21:25.301Z,19.85
2023-03-04T01:24:28.004Z,19.88
2023-03-04T01:27:30.196Z,18.77
2023-03-04T01:30:32.263Z,20.42
2023-03-04T01:33:34.694Z,18.70
2023-03-04T01:36:36.929Z,19.33
2023-03-04T01:39:38.875Z,20.35
2023-03-04T01:42:41.412Z,19.67
2023-03-04T01:45:43.687Z,20.13
2023-03-04T01:48:46.828Z,19.98
2023-03-04T01:51:54.327Z,19.27
2023-03-04T01:54:57.673Z,19.08
2023-03-04T01:57:59.754Z,19.40
2023-03-04T02:01:01.858Z,19.42
2023-03-04T02:04:04.398Z,19.13
2023-03-04T02:07:07.528Z,19.77
2023-03-04T02:10:11.078Z,21.00
2023-03-04T02:13:14.727Z,19.80
2023-03-04T02:16:16.717Z,21.75
2023-03-04T02:19:53.916Z,19.15
2023-03-04T02:23:11.926Z,19.23
2023-03-04T02:26:19.426Z,20.52
2023-03-04T02:29:24.588Z,19.10
2023-03-04T02:32:26.802Z,20.83
2023-03-04T02:35:29.371Z,20.88
2023-03-04T02:38:31.633Z,20.27
2023-03-04T02:41:34.669Z,19.88
2023-03-04T02:44:39.940Z,19.10
2023-03-04T02:47:41.954Z,19.90
2023-03-04T02:50:49.385Z,20.30
2023-03-04T02:53:51.377Z,20.85
2023-03-04T02:56:55.915Z,19.88
2023-03-04T02:59:59.299Z,20.70
2023-03-04T03:03:03.798Z,20.05
2023-03-04T03:06:06.311Z,22.08
2023-03-04T03:09:08.340Z,20.92
2023-03-04T03:12:10.411Z,19.63
2023-03-04T03:15:13.544Z,21.63
2023-03-04T03:18:15.816Z,18.73
2023-03-04T03:21:17.890Z,21.88
2023-03-04T03:24:20.877Z,19.55
2023-03-04T03:27:22.935Z,19.15
2023-03-04T03:30:26.443Z,19.42
2023-03-04T03:33:28.519Z,20.77
2023-03-04T03:36:30.728Z,21.83
2023-03-04T03:39:32.813Z,20.70
2023-03-04T03:42:34.851Z,19.08
2023-03-04T03:45:37.307Z,20.15
2023-03-04T03:48:39.470Z,19.38
2023-03-04T03:51:41.501Z,20.38
2023-03-04T03:54:43.602Z,19.73
2023-03-04T03:57:45.665Z,19.15
2023-03-04T04:00:48.054Z,20.48
2023-03-04T04:03:50.490Z,20.67
2023-03-04T04:06:52.502Z,19.92
2023-03-04T04:09:54.587Z,19.55
2023-03-04T04:12:56.671Z,20.05
2023-03-04T04:16:23.766Z,20.65
2023-03-04T04:19:25.917Z,21.13
2023-03-04T04:22:27.981Z,20.10
2023-03-04T04:25:30.452Z,20.42
2023-03-04T04:28:33.296Z,20.27
2023-03-04T04:31:36.402Z,19.77
2023-03-04T04:34:38.540Z,19.40
2023-03-04T04:37:41.879Z,19.17
2023-03-04T04:40:46.118Z,19.58
2023-03-04T04:43:48.481Z,20.58
2023-03-04T04:46:51.712Z,18.17
2023-03-04T04:49:53.742Z,18.55
2023-03-04T04:52:55.753Z,17.33
2023-03-04T04:55:57.991Z,18.98
2023-03-04T04:59:03.734Z,16.98
2023-03-04T05:02:06.060Z,16.63
2023-03-04T05:05:08.477Z,19.23
2023-03-04T05:08:10.488Z,17.90
2023-03-04T05:11:12.505Z,19.08
2023-03-04T05:14:14.756Z,17.15
2023-03-04T05:17:17.163Z,19.20
2023-03-04T05:20:19.294Z,20.60
2023-03-04T05:23:21.360Z,20.15
2023-03-04T05:26:23.497Z,20.77
2023-03-04T05:29:25.386Z,21.80
2023-03-04T05:32:28.147Z,21.05
2023-03-04T05:35:30.605Z,24.42
2023-03-04T05:38:32.849Z,21.33
2023-03-04T05:41:35.023Z,21.88
2023-03-04T05:44:37.054Z,25.30
2023-03-04T05:47:39.975Z,22.50
2023-03-04T05:50:41.983Z,22.48
2023-03-04T05:53:44.085Z,21.02
2023-03-04T05:56:46.105Z,23.55
2023-03-04T05:59:48.056Z,24.55
2023-03-04T06:02:50.462Z,34.15
2023-03-04T06:05:53.763Z,31.95
2023-03-04T06:08:56.054Z,30.02
2023-03-04T06:11:58.028Z,21.88
2023-03-04T06:15:00.129Z,22.08
2023-03-04T06:18:02.376Z,20.80
2023-03-04T06:21:04.608Z,23.33
2023-03-04T06:24:06.860Z,22.13
2023-03-04T06:27:08.975Z,27.15
2023-03-04T06:30:11.732Z,21.55
2023-03-04T06:33:14.980Z,15.60
2023-03-04T06:36:16.980Z,19.98
2023-03-04T06:39:19.062Z,19.50
2023-03-04T06:42:20.970Z,18.98
2023-03-04T06:45:23.012Z,21.13
2023-03-04T06:48:25.060Z,20.92
2023-03-04T06:51:27.126Z,19.30
2023-03-04T06:54:30.288Z,19.08
2023-03-04T06:57:33.019Z,19.50
2023-03-04T07:00:35.219Z,17.70
2023-03-04T07:03:37.608Z,12.30
2023-03-04T07:06:39.701Z,20.08
2023-03-04T07:09:41.854Z,20.15
2023-03-04T07:12:44.146Z,21.38
2023-03-04T07:15:46.674Z,22.13
2023-03-04T07:18:49.244Z,19.85
2023-03-04T07:21:51.484Z,20.95
2023-03-04T07:24:53.507Z,18.58
2023-03-04T07:31:48.852Z,16.40
2023-03-04T07:34:51.725Z,17.00
2023-03-04T07:37:53.794Z,12.88
2023-03-04T07:40:57.632Z,13.93
2023-03-04T07:43:59.638Z,13.10
2023-03-04T07:47:01.611Z,11.73
2023-03-04T07:50:03.920Z,14.55
2023-03-04T07:53:05.899Z,14.43
2023-03-04T07:56:11.920Z,14.45
2023-03-04T07:59:14.103Z,13.98
2023-03-04T08:02:16.102Z,14.35
2023-03-04T08:05:18.427Z,13.68
2023-03-04T08:08:20.530Z,15.68
2023-03-04T08:11:22.679Z,15.75
2023-03-04T08:14:36.968Z,14.30
2023-03-04T08:17:43.350Z,15.77
2023-03-04T08:20:45.428Z,15.65
2023-03-04T08:23:50.875Z,12.27
2023-03-04T08:26:53.022Z,10.52
2023-03-04T08:29:55.106Z,9.13
2023-03-04T08:32:57.422Z,10.10
2023-03-04T08:35:59.795Z,11.32
2023-03-04T08:39:01.962Z,14.10
2023-03-04T08:42:04.113Z,10.98
2023-03-04T08:45:06.478Z,9.77
2023-03-04T08:48:08.448Z,10.05
2023-03-04T08:51:12.744Z,10.60
2023-03-04T08:54:15.576Z,9.38
2023-03-04T08:57:17.639Z,10.48
2023-03-04T09:00:21.262Z,10.57
2023-03-04T09:03:23.199Z,9.35
2023-03-04T09:06:25.172Z,11.02
2023-03-04T09:09:27.252Z,11.57
2023-03-04T09:12:29.140Z,9.32
2023-03-04T09:15:31.169Z,11.30
2023-03-04T09:18:33.156Z,10.98
2023-03-04T09:21:35.172Z,8.75
2023-03-04T09:24:45.256Z,9.30
2023-03-04T09:27:47.692Z,10.40
2023-03-04T09:30:49.735Z,10.63
2023-03-04T09:34:00.768Z,11.70
2023-03-04T09:37:03.144Z,9.38
2023-03-04T09:40:08.276Z,11.57
2023-03-04T09:43:21.581Z,10.10
2023-03-04T09:46:45.538Z,11.55
2023-03-04T09:50:17.511Z,9.07
2023-03-04T09:53:26.319Z,9.25
2023-03-04T09:56:28.637Z,8.95
2023-03-04T09:59:41.472Z,7.13
2023-03-04T10:02:52.579Z,9.45
2023-03-04T10:05:59.131Z,8.88
2023-03-04T10:09:46.753Z,8.23
2023-03-04T10:12:51.309Z,8.15
2023-03-04T10:15:54.455Z,9.23
2023-03-04T10:18:58.408Z,8.45
2023-03-04T10:22:00.609Z,10.13
2023-03-04T10:25:16.223Z,9.63
2023-03-04T10:28:20.258Z,9.30
2023-03-04T10:31:33.271Z,9.75
2023-03-04T10:34:35.254Z,8.63
2023-03-04T10:37:46.159Z,8.90
2023-03-04T10:40:48.198Z,8.55
2023-03-04T10:44:11.560Z,8.05
2023-03-04T10:47:17.006Z,7.22
2023-03-04T10:50:28.155Z,9.00
2023-03-04T10:53:37.266Z,8.15
2023-03-04T10:56:45.578Z,9.48
2023-03-04T10:59:57.142Z,6.80
2023-03-04T11:03:35.877Z,7.18
2023-03-04T11:06:41.728Z,9.52
2023-03-04T11:09:44.973Z,9.27
2023-03-04T11:13:01.035Z,7.75
2023-03-04T11:16:06.243Z,8.43
2023-03-04T11:19:16.544Z,7.68
2023-03-04T11:22:29.387Z,8.15
2023-03-04T11:25:36.010Z,8.10
2023-03-04T11:28:43.994Z,7.63
2023-03-04T11:31:48.831Z,6.85
2023-03-04T11:35:01.447Z,6.60
2023-03-04T11:38:15.722Z,8.00
2023-03-04T11:41:25.816Z,6.75
2023-03-04T11:44:27.797Z,7.90
2023-03-04T11:47:44.136Z,6.90
2023-03-04T11:50:53.977Z,7.25
2023-03-04T11:53:56.157Z,6.80
2023-03-04T11:57:07.009Z,5.57
2023-03-04T12:00:36.166Z,7.07
2023-03-04T12:03:50.703Z,6.43
2023-03-04T12:07:26.442Z,6.70
2023-03-04T12:10:31.524Z,6.72
2023-03-04T12:13:43.576Z,5.75
2023-03-04T12:17:12.957Z,5.93
2023-03-04T12:20:19.819Z,7.38
2023-03-04T12:24:05.328Z,6.78
2023-03-04T12:27:12.960Z,7.40
2023-03-04T12:30:50.078Z,5.75
2023-03-04T12:34:10.231Z,5.00
2023-03-04T12:37:15.763Z,5.82
2023-03-04T12:40:23.874Z,6.28
2023-03-04T12:43:47.821Z,5.47
2023-03-04T12:47:20.344Z,7.05
2023-03-04T12:50:37.111Z,6.03
2023-03-04T12:53:47.749Z,5.95
2023-03-04T12:56:52.727Z,5.72
2023-03-04T13:00:23.469Z,5.38
2023-03-04T13:03:28.214Z,6.10
2023-03-04T13:06:58.521Z,6.70
2023-03-04T13:10:11.495Z,6.18
2023-03-04T13:13:41.419Z,6.32
2023-03-04T13:16:49.953Z,5.43
2023-03-04T13:23:01.961Z,4.60
2023-03-04T13:26:03.823Z,4.68
2023-03-04T13:29:34.362Z,4.68
2023-03-04T13:32:38.674Z,5.00
2023-03-04T13:35:47.182Z,5.30
2023-03-04T13:39:00.686Z,5.72
2023-03-04T13:42:03.656Z,5.00
2023-03-04T13:45:25.817Z,5.78
2023-03-04T13:48:36.465Z,5.68
2023-03-04T13:51:43.147Z,6.22
2023-03-04T13:54:45.229Z,6.93
2023-03-04T13:57:51.360Z,5.72
2023-03-04T14:00:55.721Z,5.50
2023-03-04T14:03:59.840Z,6.43
2023-03-04T14:07:18.345Z,7.10
2023-03-04T14:10:24.824Z,6.30
2023-03-04T14:13:27.786Z,7.18
2023-03-04T14:16:35.935Z,6.43
2023-03-04T14:19:46.278Z,6.68
2023-03-04T14:22:48.221Z,7.40
2023-03-04T14:25:50.388Z,5.65
2023-03-04T14:28:57.463Z,6.35
2023-03-04T14:32:00.409Z,8.82
2023-03-04T14:35:06.579Z,6.63
2023-03-04T14:38:25.134Z,6.50
2023-03-04T14:41:34.328Z,6.32
2023-03-04T14:44:48.780Z,6.60
2023-03-04T14:47:54.922Z,6.25
2023-03-04T14:50:58.578Z,7.05
2023-03-04T14:54:00.632Z,7.32
2023-03-04T14:57:26.127Z,5.07
2023-03-04T15:00:30.918Z,7.15
2023-03-04T15:03:34.500Z,6.35
2023-03-04T15:06:49.096Z,5.43
2023-03-04T15:09:55.819Z,5.78
2023-03-04T15:13:01.608Z,5.20
2023-03-04T15:16:03.933Z,4.68
2023-03-04T15:19:25.616Z,5.20
2023-03-04T15:22:27.837Z,5.05
2023-03-04T15:25:30.711Z,5.90
2023-03-04T15:28:37.470Z,5.53
2023-03-04T15:31:39.491Z,5.18
2023-03-04T15:34:41.445Z,5.13
2023-03-04T15:37:44.891Z,5.50
2023-03-04T15:40:47.170Z,5.72
2023-03-04T15:43:51.140Z,5.65
2023-03-04T15:46:53.138Z,5.40
2023-03-04T15:49:55.141Z,5.82
2023-03-04T15:53:00.258Z,7.55
2023-03-04T15:56:03.943Z,7.93
2023-03-04T15:59:17.087Z,7.32
2023-03-04T16:02:24.717Z,9.02
2023-03-04T16:05:26.903Z,8.30
2023-03-04T16:08:31.034Z,8.52
2023-03-04T16:11:46.535Z,7.43
2023-03-04T16:14:49.382Z,7.43
2023-03-04T16:17:54.648Z,6.65
2023-03-04T16:20:57.097Z,5.88
2023-03-04T16:23:59.522Z,7.20
2023-03-04T16:27:01.592Z,8.10
2023-03-04T16:30:04.678Z,7.88
2023-03-04T16:33:07.627Z,7.63
2023-03-04T16:36:18.937Z,8.77
2023-03-04T16:39:24.392Z,8.20
2023-03-04T16:42:27.334Z,9.50
2023-03-04T16:45:30.979Z,8.85
2023-03-04T16:48:33.019Z,8.40
2023-03-04T16:51:40.444Z,8.38
2023-03-04T16:54:42.490Z,8.77
2023-03-04T16:57:44.669Z,8.43
2023-03-04T17:00:46.943Z,6.53
2023-03-04T17:03:49.004Z,6.60
2023-03-04T17:06:53.112Z,8.45
2023-03-04T17:09:55.288Z,7.93
2023-03-04T17:12:57.798Z,8.07
2023-03-04T17:16:08.908Z,8.38
2023-03-04T17:19:13.641Z,9.52
2023-03-04T17:22:21.603Z,9.43
2023-03-04T17:25:26.584Z,9.00
2023-03-04T17:28:29.639Z,8.98
2023-03-04T17:31:36.721Z,9.30
2023-03-04T17:34:43.413Z,9.32
2023-03-04T17:37:45.440Z,9.32
2023-03-04T17:40:48.227Z,9.48
2023-03-04T17:43:55.312Z,8.00
2023-03-04T17:46:58.299Z,8.55
2023-03-04T17:50:06.746Z,8.38
2023-03-04T17:56:12.826Z,9.30
2023-03-04T17:59:16.915Z,9.20
2023-03-04T18:02:30.739Z,9.40
2023-03-04T18:05:33.586Z,9.65
2023-03-04T18:08:42.949Z,9.25
2023-03-04T18:11:45.935Z,10.63
2023-03-04T18:14:48.297Z,10.10
2023-03-04T18:17:50.449Z,10.13
2023-03-04T18:21:03.202Z,9.50
2023-03-04T18:24:05.755Z,10.07
2023-03-04T18:27:10.419Z,9.23
2023-03-04T18:30:27.300Z,9.95
2023-03-04T18:33:37.127Z,9.52
2023-03-04T18:36:40.187Z,11.13
2023-03-04T18:39:42.322Z,12.07
2023-03-04T18:42:48.729Z,12.13
2023-03-04T18:46:12.648Z,12.00
2023-03-04T18:49:16.429Z,12.98
2023-03-04T18:52:20.128Z,12.02
2023-03-04T18:55:34.313Z,12.52
2023-03-04T18:58:40.237Z,12.25
2023-03-04T19:02:02.656Z,10.95
2023-03-04T19:05:28.692Z,14.05
2023-03-04T19:08:31.099Z,13.45
2023-03-04T19:11:34.353Z,14.63
2023-03-04T19:14:36.419Z,14.60
2023-03-04T19:17:39.353Z,16.08
2023-03-04T19:20:42.912Z,14.63
2023-03-04T19:23:44.829Z,16.00
2023-03-04T19:26:46.907Z,15.25
2023-03-04T19:29:49.383Z,15.45
2023-03-04T19:32:51.502Z,16.02
2023-03-04T19:35:53.709Z,16.35
2023-03-04T19:38:55.796Z,16.98
2023-03-04T19:41:57.993Z,15.05
2023-03-04T19:45:01.986Z,15.45
2023-03-04T19:48:04.393Z,14.02
2023-03-04T19:51:19.964Z,12.48
2023-03-04T19:54:22.089Z,12.63
2023-03-04T19:57:28.217Z,14.45
2023-03-04T20:00:30.350Z,13.40
2023-03-04T20:03:33.053Z,13.88
2023-03-04T20:06:40.186Z,15.00
2023-03-04T20:09:42.486Z,15.02
2023-03-04T20:12:44.714Z,15.73
2023-03-04T20:15:46.809Z,16.23
2023-03-04T20:18:50.547Z,15.95
2023-03-04T20:21:52.789Z,14.57
2023-03-04T20:24:55.663Z,16.40
2023-03-04T20:27:58.916Z,16.20
2023-03-04T20:31:27.253Z,14.68
2023-03-04T20:34:29.359Z,18.30
2023-03-04T20:37:31.834Z,18.00
2023-03-04T20:40:36.016Z,16.83
2023-03-04T20:43:38.713Z,16.00
2023-03-04T20:46:46.303Z,14.90
2023-03-04T20:49:48.865Z,15.82
2023-03-04T20:52:53.762Z,16.92
2023-03-04T20:55:55.833Z,13.80
2023-03-04T20:59:00.433Z,13.18
2023-03-04T21:02:02.617Z,13.23
2023-03-04T21:05:05.025Z,11.77
2023-03-04T21:08:07.044Z,12.20
2023-03-04T21:11:16.108Z,13.98
2023-03-04T21:14:24.438Z,13.77
2023-03-04T21:17:26.463Z,14.48
2023-03-04T21:20:28.521Z,11.05
2023-03-04T21:23:30.627Z,13.60
2023-03-04T21:26:34.976Z,12.13
2023-03-04T21:29:37.889Z,13.60
2023-03-04T21:32:40.260Z,14.88
2023-03-04T21:35:42.416Z,14.63
2023-03-04T21:38:45.677Z,14.27
2023-03-04T21:41:48.273Z,16.40
2023-03-04T21:44:51.611Z,13.13
2023-03-04T21:47:53.929Z,16.38
2023-03-04T21:51:04.709Z,14.80
2023-03-04T21:54:07.998Z,15.18
2023-03-04T21:57:10.065Z,14.80
2023-03-04T22:00:14.532Z,15.57
2023-03-04T22:03:16.716Z,16.65
2023-03-04T22:06:22.745Z,17.30
2023-03-04T22:09:25.952Z,16.27
2023-03-04T22:12:28.231Z,15.85
2023-03-04T22:15:30.180Z,18.38
2023-03-04T22:18:32.865Z,19.48
2023-03-04T22:21:34.930Z,17.42
2023-03-04T22:24:36.977Z,19.40
2023-03-04T22:27:39.060Z,18.90
2023-03-04T22:30:41.245Z,18.20
2023-03-04T22:33:43.941Z,18.45
2023-03-04T22:36:47.370Z,18.98
2023-03-04T22:39:49.404Z,19.85
2023-03-04T22:42:52.507Z,18.38
2023-03-04T22:45:54.596Z,17.20
2023-03-04T22:48:59.858Z,17.83
2023-03-04T22:52:01.903Z,19.30
2023-03-04T22:55:05.591Z,18.70
2023-03-04T22:58:07.909Z,18.13
2023-03-04T23:01:10.530Z,18.38
2023-03-04T23:04:12.654Z,18.88
2023-03-04T23:07:14.723Z,19.02
2023-03-04T23:10:24.872Z,18.98
2023-03-04T23:13:27.260Z,20.70
2023-03-04T23:16:29.400Z,18.42
2023-03-04T23:19:31.491Z,19.25
2023-03-04T23:22:34.096Z,19.45
2023-03-04T23:25:37.189Z,20.52
2023-03-04T23:28:39.196Z,19.42
2023-03-04T23:31:44.508Z,17.80
2023-03-04T23:34:46.863Z,21.10
2023-03-04T23:37:50.150Z,20.20
2023-03-04T23:40:52.230Z,20.88
2023-03-04T23:43:55.910Z,22.25
2023-03-04T23:46:58.235Z,21.75
2023-03-04T23:50:00.714Z,21.83
2023-03-04T23:53:03.099Z,21.75
2023-03-04T23:56:12.990Z,21.58
2023-03-04T23:59:15.049Z,19.40
